Time;durP1;ratioP1;P1;durP2;ratioP2;P2;SDS_P1;SDS_P2;PMS_P1;PMS_P2;Temp;Humidity;BMP_temperature;BMP_pressure;BME280_temperature;BME280_humidity;BME280_pressure;Samples;Min_cycle;Max_cycle;Signal;HPM_P1;HPM_P2
2022/10/13 00:00:58;;;;;;;5.07;1.83;;;21.70;96.80;;;;;;5072169;28;20382;-81
2022/10/13 00:03:25;;;;;;;6.75;1.80;;;21.70;97.20;;;;;;5073120;28;20381;-81
2022/10/13 00:05:52;;;;;;;4.53;1.80;;;21.50;96.90;;;;;;5072912;28;20378;-81
2022/10/13 00:08:21;;;;;;;7.90;2.83;;;21.40;96.60;;;;;;5073267;28;20390;-80
2022/10/13 00:10:49;;;;;;;5.35;2.47;;;21.40;96.50;;;;;;5072516;28;20394;-82
2022/10/13 00:13:18;;;;;;;4.70;1.67;;;21.40;97.00;;;;;;5072408;28;20428;-82
2022/10/13 00:15:47;;;;;;;5.70;1.70;;;21.20;97.20;;;;;;5072945;28;20711;-83
2022/10/13 00:18:15;;;;;;;7.68;1.88;;;21.10;97.90;;;;;;5072574;28;20377;-82
2022/10/13 00:20:47;;;;;;;6.47;1.77;;;21.20;99.20;;;;;;5072678;28;20378;-81
2022/10/13 00:23:15;;;;;;;8.43;2.90;;;21.30;99.00;;;;;;5072458;28;20869;-80
2022/10/13 00:25:48;;;;;;;9.20;2.65;;;21.40;97.80;;;;;;5072322;28;20366;-81
2022/10/13 00:28:19;;;;;;;6.28;2.17;;;21.60;97.10;;;;;;5072466;28;20455;-80
2022/10/13 00:30:47;;;;;;;5.15;2.38;;;21.70;96.90;;;;;;5071880;28;20397;-81
2022/10/13 00:33:14;;;;;;;6.40;2.40;;;21.70;96.10;;;;;;5071810;28;20374;-81
2022/10/13 00:35:50;;;;;;;5.20;2.10;;;21.80;96.90;;;;;;5072325;28;20362;-81
2022/10/13 00:38:20;;;;;;;6.05;1.98;;;21.90;96.80;;;;;;5076304;28;20834;-81
2022/10/13 00:40:53;;;;;;;9.80;2.28;;;21.90;95.90;;;;;;5075717;28;20435;-81
2022/10/13 00:43:52;;;;;;;6.55;2.75;;;21.90;96.10;;;;;;5075963;28;20370;-82
2022/10/13 00:46:20;;;;;;;6.13;2.90;;;22.00;96.20;;;;;;4994737;28;20420;-81
2022/10/13 00:48:50;;;;;;;7.03;2.75;;;22.00;95.40;;;;;;4994627;28;20888;-81
2022/10/13 00:51:20;;;;;;;7.77;3.00;;;22.10;95.70;;;;;;4994772;28;20587;-81
2022/10/13 00:53:48;;;;;;;6.40;3.17;;;21.90;94.40;;;;;;4994587;28;20409;-81
2022/10/13 00:56:18;;;;;;;5.05;2.80;;;21.80;94.90;;;;;;4994307;28;20396;-81
2022/10/13 00:58:47;;;;;;;6.00;3.10;;;21.70;95.20;;;;;;4994241;28;20385;-80
2022/10/13 01:01:14;;;;;;;6.03;3.53;;;21.70;95.80;;;;;;4994257;28;20385;-81
2022/10/13 01:03:41;;;;;;;9.52;3.95;;;21.60;96.30;;;;;;4994356;28;20376;-82
2022/10/13 01:06:09;;;;;;;12.25;6.43;;;21.50;96.30;;;;;;4994105;28;20512;-80
2022/10/13 01:08:36;;;;;;;6.25;3.28;;;21.40;96.80;;;;;;4993866;28;20377;-80
2022/10/13 01:11:39;;;;;;;6.13;3.30;;;21.40;96.70;;;;;;4993894;28;20401;-81
2022/10/13 01:14:19;;;;;;;6.38;3.25;;;21.30;96.50;;;;;;4964621;28;20447;-79
2022/10/13 01:16:49;;;;;;;6.43;3.13;;;21.20;96.70;;;;;;4974810;28;20382;-81
2022/10/13 01:19:46;;;;;;;6.93;3.40;;;21.10;97.00;;;;;;4974912;28;20386;-81
2022/10/13 01:22:39;;;;;;;6.35;3.47;;;21.00;97.40;;;;;;4989278;28;20404;-81
2022/10/13 01:25:20;;;;;;;6.05;3.33;;;21.10;97.40;;;;;;5055011;28;20372;-80
2022/10/13 01:28:00;;;;;;;4.43;3.10;;;21.10;97.20;;;;;;5055528;28;20804;-81
2022/10/13 01:30:30;;;;;;;5.80;3.10;;;21.00;97.20;;;;;;5055552;28;20434;-80
2022/10/13 01:33:15;;;;;;;7.00;3.57;;;21.10;97.30;;;;;;5054954;28;20398;-81
2022/10/13 01:35:55;;;;;;;7.45;3.08;;;21.30;96.60;;;;;;5055190;28;20394;-80
2022/10/13 01:38:46;;;;;;;7.93;3.20;;;21.40;97.10;;;;;;5054896;28;20372;-80
2022/10/13 01:41:23;;;;;;;6.53;2.20;;;21.60;96.40;;;;;;5055121;28;20368;-81
2022/10/13 01:44:21;;;;;;;4.25;1.92;;;21.70;95.80;;;;;;5054462;28;20439;-81
2022/10/13 01:46:50;;;;;;;4.20;1.90;;;21.80;95.90;;;;;;4973728;28;20401;-80
2022/10/13 01:49:21;;;;;;;4.17;1.87;;;22.20;95.90;;;;;;4957540;28;20382;-81
2022/10/13 01:51:49;;;;;;;5.32;1.80;;;22.60;95.40;;;;;;4974843;28;20429;-79
2022/10/13 01:54:16;;;;;;;6.85;2.03;;;22.90;94.00;;;;;;4974253;28;20433;-80
2022/10/13 01:56:55;;;;;;;8.10;1.75;;;22.90;94.20;;;;;;4974915;28;20970;-80
2022/10/13 01:59:25;;;;;;;5.18;1.90;;;23.20;93.20;;;;;;4977946;28;20370;-81
2022/10/13 02:02:13;;;;;;;5.55;1.75;;;23.30;92.70;;;;;;4979376;28;20393;-82
2022/10/13 02:05:00;;;;;;;5.22;1.90;;;23.30;93.00;;;;;;4979607;28;20395;-81
2022/10/13 02:07:29;;;;;;;5.47;1.67;;;23.20;91.50;;;;;;4973970;28;20370;-81
2022/10/13 02:10:22;;;;;;;7.05;2.20;;;23.00;92.00;;;;;;4973506;28;20387;-79
2022/10/13 02:13:02;;;;;;;5.07;2.00;;;23.10;91.50;;;;;;4973381;28;20427;-80
2022/10/13 02:15:40;;;;;;;5.18;2.30;;;23.10;91.50;;;;;;4973448;28;20382;-80
2022/10/13 02:18:09;;;;;;;7.93;2.30;;;22.80;91.70;;;;;;4973766;28;20487;-80
2022/10/13 02:20:36;;;;;;;4.45;2.08;;;22.80;92.30;;;;;;4973272;28;20925;-82
2022/10/13 02:23:09;;;;;;;5.50;2.13;;;22.70;91.80;;;;;;4986328;28;20372;-79
2022/10/13 02:25:37;;;;;;;5.68;2.13;;;22.60;92.30;;;;;;5053927;28;20443;-82
2022/10/13 02:28:04;;;;;;;6.47;2.07;;;22.40;93.00;;;;;;5036526;28;20400;-81
2022/10/13 02:30:33;;;;;;;5.70;2.05;;;22.20;93.30;;;;;;5053756;28;20376;-81
2022/10/13 02:33:02;;;;;;;5.28;2.13;;;22.00;93.30;;;;;;5053890;28;20392;-80
2022/10/13 02:35:29;;;;;;;6.23;2.30;;;21.80;94.10;;;;;;5053670;28;20379;-81
2022/10/13 02:37:56;;;;;;;5.43;2.50;;;21.70;94.40;;;;;;5053578;28;20394;-81
2022/10/13 02:40:24;;;;;;;5.85;2.40;;;21.50;95.20;;;;;;5035716;28;20403;-81
2022/10/13 02:42:51;;;;;;;5.95;2.00;;;21.60;95.30;;;;;;5053735;28;20455;-78
2022/10/13 02:45:18;;;;;;;5.60;2.20;;;21.70;94.60;;;;;;5050651;28;20376;-80
2022/10/13 02:47:45;;;;;;;5.88;2.50;;;21.70;94.70;;;;;;5053676;28;20368;-79
2022/10/13 02:50:13;;;;;;;6.22;2.15;;;21.80;95.20;;;;;;5053566;28;20384;-82
2022/10/13 02:52:39;;;;;;;6.32;2.33;;;21.80;95.20;;;;;;5053666;28;20802;-79
2022/10/13 02:55:07;;;;;;;7.73;2.23;;;21.80;95.50;;;;;;5053528;28;20378;-78
2022/10/13 02:57:35;;;;;;;5.75;2.10;;;21.80;95.60;;;;;;5053269;28;20713;-79
2022/10/13 03:00:04;;;;;;;5.37;1.90;;;21.80;95.90;;;;;;5052838;28;20435;-78
2022/10/13 03:02:31;;;;;;;7.85;1.80;;;22.00;95.60;;;;;;5053737;28;20409;-81
2022/10/13 03:04:58;;;;;;;4.88;1.80;;;21.80;95.20;;;;;;5053687;28;20415;-78
2022/10/13 03:07:25;;;;;;;6.47;1.80;;;22.00;95.70;;;;;;5053913;28;20375;-79
2022/10/13 03:09:52;;;;;;;5.00;1.73;;;22.10;95.40;;;;;;5053497;28;20365;-80
2022/10/13 03:12:19;;;;;;;4.57;1.70;;;22.30;95.50;;;;;;5053735;28;20410;-81
2022/10/13 03:14:46;;;;;;;6.22;1.95;;;22.50;95.40;;;;;;5072460;28;20390;-78
2022/10/13 03:17:13;;;;;;;6.40;1.95;;;22.80;94.10;;;;;;5073411;28;20389;-83
2022/10/13 03:19:40;;;;;;;4.38;1.80;;;23.20;94.10;;;;;;5076205;28;20854;-80
2022/10/13 03:22:07;;;;;;;4.95;1.80;;;23.50;92.50;;;;;;5074339;28;20424;-80
2022/10/13 03:24:34;;;;;;;5.50;1.70;;;23.60;92.10;;;;;;5076650;28;20468;-81
2022/10/13 03:27:01;;;;;;;6.90;1.70;;;23.90;92.10;;;;;;5074570;28;20377;-80
2022/10/13 03:29:28;;;;;;;4.40;1.60;;;24.30;91.10;;;;;;5073235;28;20370;-82
2022/10/13 03:31:55;;;;;;;5.25;2.10;;;24.60;88.30;;;;;;5073513;28;20410;-79
2022/10/13 03:34:23;;;;;;;6.20;2.30;;;24.80;88.00;;;;;;5073842;28;20420;-82
2022/10/13 03:36:50;;;;;;;6.53;1.67;;;25.00;89.00;;;;;;5073540;28;20376;-82
2022/10/13 03:39:17;;;;;;;3.80;1.48;;;24.80;87.00;;;;;;5073522;28;20370;-81
2022/10/13 03:41:45;;;;;;;5.60;1.70;;;24.70;87.40;;;;;;5054979;28;20378;-81
2022/10/13 03:44:12;;;;;;;7.20;1.98;;;24.40;87.80;;;;;;5073513;28;20687;-80
2022/10/13 03:46:39;;;;;;;5.38;1.70;;;24.20;88.20;;;;;;5073075;28;20374;-82
2022/10/13 03:49:06;;;;;;;4.85;1.60;;;23.90;88.80;;;;;;5072923;28;20373;-81
2022/10/13 03:51:34;;;;;;;5.13;1.40;;;23.70;89.70;;;;;;5073044;28;20446;-83
2022/10/13 03:54:01;;;;;;;5.45;1.58;;;23.60;90.00;;;;;;5072714;28;20741;-80
2022/10/13 03:56:28;;;;;;;4.40;1.57;;;23.80;89.60;;;;;;5073177;28;20374;-82
2022/10/13 03:58:57;;;;;;;5.68;1.80;;;23.90;89.80;;;;;;5054531;28;20382;-83
2022/10/13 04:01:27;;;;;;;7.57;2.00;;;23.80;88.80;;;;;;5072662;28;20366;-83
2022/10/13 04:03:55;;;;;;;6.40;1.67;;;23.70;90.00;;;;;;5072930;28;20384;-80
2022/10/13 04:06:24;;;;;;;6.63;1.70;;;24.00;90.90;;;;;;5073007;28;20370;-81
2022/10/13 04:08:51;;;;;;;5.25;1.60;;;24.20;90.50;;;;;;5073147;28;20383;-82
2022/10/13 04:11:18;;;;;;;4.67;1.50;;;24.10;90.40;;;;;;5075328;28;20402;-81
2022/10/13 04:13:45;;;;;;;6.07;1.60;;;24.30;89.10;;;;;;5076366;28;20390;-81
2022/10/13 04:16:19;;;;;;;6.10;1.70;;;24.30;89.50;;;;;;5076622;28;20373;-83
2022/10/13 04:18:50;;;;;;;5.77;1.63;;;24.30;90.50;;;;;;5076697;28;20378;-84
2022/10/13 04:21:16;;;;;;;5.07;1.40;;;24.30;89.90;;;;;;5077025;28;20428;-84
2022/10/13 04:23:43;;;;;;;8.10;1.70;;;24.20;89.40;;;;;;5076871;28;20374;-84
2022/10/13 04:26:19;;;;;;;4.40;1.60;;;24.20;89.50;;;;;;5076569;28;20370;-84
2022/10/13 04:28:48;;;;;;;5.70;1.40;;;24.40;91.00;;;;;;5076933;28;20469;-83
2022/10/13 04:31:16;;;;;;;6.88;1.55;;;24.70;90.10;;;;;;5076627;28;20447;-83
2022/10/13 04:33:43;;;;;;;6.53;1.50;;;25.10;87.10;;;;;;5076497;28;20385;-85
2022/10/13 04:36:12;;;;;;;5.78;1.50;;;25.20;85.60;;;;;;5076212;28;20393;-83
2022/10/13 04:38:40;;;;;;;5.15;1.40;;;25.00;86.00;;;;;;5076273;28;20371;-83
2022/10/13 04:41:08;;;;;;;5.57;1.40;;;25.00;89.40;;;;;;5076476;28;20377;-86
2022/10/13 04:43:35;;;;;;;4.93;1.60;;;25.60;86.60;;;;;;5076086;28;20446;-83
2022/10/13 04:46:14;;;;;;;5.07;1.70;;;26.10;84.40;;;;;;5075869;28;20927;-84
2022/10/13 04:48:41;;;;;;;6.82;1.60;;;26.50;83.40;;;;;;5076272;28;20376;-85
2022/10/13 04:51:11;;;;;;;4.85;1.50;;;26.90;79.30;;;;;;5075937;28;20390;-84
2022/10/13 04:53:39;;;;;;;5.55;1.50;;;26.40;79.40;;;;;;5076012;28;20473;-84
2022/10/13 04:56:10;;;;;;;6.28;1.60;;;26.30;80.50;;;;;;5075821;28;20869;-88
2022/10/13 04:58:38;;;;;;;6.17;1.50;;;27.00;78.30;;;;;;5076330;28;20757;-84
2022/10/13 05:01:07;;;;;;;5.78;1.33;;;27.40;76.60;;;;;;5075888;28;20381;-82
2022/10/13 05:03:34;;;;;;;6.53;1.60;;;27.10;75.40;;;;;;5075597;28;20378;-82
2022/10/13 05:06:02;;;;;;;7.60;1.60;;;26.20;77.60;;;;;;5075694;28;20374;-84
2022/10/13 05:08:29;;;;;;;5.20;1.50;;;25.50;80.10;;;;;;5077149;28;20413;-81
2022/10/13 05:10:57;;;;;;;5.00;1.50;;;25.00;81.50;;;;;;5079206;28;20538;-87
2022/10/13 05:13:25;;;;;;;5.50;1.42;;;24.50;84.20;;;;;;5080512;28;20381;-83
2022/10/13 05:15:52;;;;;;;18.13;2.40;;;24.20;85.70;;;;;;5080836;28;20377;-81
2022/10/13 05:18:19;;;;;;;16.80;2.47;;;23.90;86.70;;;;;;5075092;28;20409;-85
2022/10/13 05:20:46;;;;;;;8.20;1.77;;;23.70;88.40;;;;;;5075065;28;20378;-85
2022/10/13 05:23:14;;;;;;;5.78;1.60;;;23.50;90.40;;;;;;5074965;28;20404;-92
2022/10/13 05:25:41;;;;;;;7.38;2.00;;;23.50;90.30;;;;;;5075306;28;20461;-83
2022/10/13 05:28:08;;;;;;;8.13;1.80;;;23.60;90.70;;;;;;5075151;28;20381;-79
2022/10/13 05:30:36;;;;;;;6.07;1.70;;;23.60;91.00;;;;;;5075237;28;20377;-84
2022/10/13 05:33:03;;;;;;;5.90;1.70;;;23.60;90.90;;;;;;5075150;28;20401;-82
2022/10/13 05:35:30;;;;;;;7.85;1.60;;;23.70;90.60;;;;;;5074821;28;20370;-81
2022/10/13 05:37:57;;;;;;;7.47;1.50;;;23.50;90.80;;;;;;5075024;28;20435;-84
2022/10/13 05:40:24;;;;;;;7.57;1.70;;;23.30;91.00;;;;;;5056700;28;20385;-82
2022/10/13 05:42:52;;;;;;;6.97;1.65;;;23.20;91.70;;;;;;5074685;28;20885;-81
2022/10/13 05:45:21;;;;;;;7.47;1.70;;;22.90;92.40;;;;;;5074629;28;20374;-82
2022/10/13 05:47:48;;;;;;;8.35;1.60;;;22.80;92.80;;;;;;5074419;28;20687;-85
2022/10/13 05:50:15;;;;;;;7.30;1.58;;;22.70;93.60;;;;;;5071641;28;20374;-82
2022/10/13 05:52:42;;;;;;;8.88;1.83;;;22.60;93.90;;;;;;5056587;28;20490;-82
2022/10/13 05:55:12;;;;;;;6.93;1.70;;;22.40;94.40;;;;;;5074333;28;20404;-83
2022/10/13 05:57:44;;;;;;;7.03;1.63;;;22.30;94.60;;;;;;5074265;28;20382;-84
2022/10/13 06:00:14;;;;;;;7.20;1.70;;;22.10;95.40;;;;;;5074271;28;20373;-85
2022/10/13 06:02:58;;;;;;;6.95;1.90;;;22.00;95.70;;;;;;5074270;28;20386;-81
2022/10/13 06:05:26;;;;;;;6.67;1.60;;;21.90;96.10;;;;;;5074514;28;20529;-83
2022/10/13 06:07:57;;;;;;;7.57;1.65;;;21.80;96.80;;;;;;5074209;28;20377;-83
2022/10/13 06:10:24;;;;;;;5.77;1.70;;;21.60;97.20;;;;;;5074596;28;20366;-82
2022/10/13 06:12:51;;;;;;;6.05;1.50;;;21.60;97.60;;;;;;5073968;28;20412;-82
2022/10/13 06:15:18;;;;;;;8.10;1.83;;;21.50;97.50;;;;;;5074051;28;20445;-87
2022/10/13 06:17:45;;;;;;;7.97;1.60;;;21.50;98.20;;;;;;5074116;28;20383;-87
2022/10/13 06:20:12;;;;;;;8.32;1.60;;;21.40;98.30;;;;;;5074438;28;20374;-83
2022/10/13 06:22:39;;;;;;;8.32;1.60;;;21.30;98.60;;;;;;5073909;28;20414;-87
2022/10/13 06:25:07;;;;;;;6.57;1.60;;;21.30;98.80;;;;;;5073859;28;20726;-89
2022/10/13 06:27:34;;;;;;;8.02;1.77;;;21.20;99.20;;;;;;5073964;28;20467;-84
2022/10/13 06:30:02;;;;;;;5.50;1.50;;;21.10;99.70;;;;;;5074662;28;20770;-82
2022/10/13 06:32:29;;;;;;;8.25;1.77;;;21.10;99.80;;;;;;5073609;28;20413;-84
2022/10/13 06:34:56;;;;;;;7.75;1.63;;;21.10;99.60;;;;;;5074080;28;20397;-86
2022/10/13 06:37:23;;;;;;;7.57;1.80;;;21.10;99.70;;;;;;5074707;28;20393;-84
2022/10/13 06:39:50;;;;;;;6.90;1.55;;;21.00;99.90;;;;;;5074993;28;20366;-82
2022/10/13 06:42:17;;;;;;;7.38;1.60;;;20.90;99.90;;;;;;5078145;28;20404;-84
2022/10/13 06:44:44;;;;;;;6.70;1.63;;;20.80;99.90;;;;;;5082299;28;20382;-82
2022/10/13 06:47:11;;;;;;;8.43;1.90;;;20.70;99.90;;;;;;5081647;28;20358;-84
2022/10/13 06:49:38;;;;;;;10.35;1.85;;;20.70;99.90;;;;;;5085979;28;20506;-84
2022/10/13 06:52:05;;;;;;;17.90;2.67;;;20.70;99.90;;;;;;5089990;28;20409;-83
2022/10/13 06:54:33;;;;;;;7.80;2.00;;;20.60;99.90;;;;;;5081640;28;20373;-80
2022/10/13 06:57:00;;;;;;;7.72;2.00;;;20.60;99.90;;;;;;5087916;28;20408;-78
2022/10/13 06:59:27;;;;;;;36.33;26.52;;;20.50;99.90;;;;;;5087347;28;20370;-82
2022/10/13 07:01:54;;;;;;;70.30;51.75;;;20.50;99.90;;;;;;5088390;28;20375;-83
2022/10/13 07:04:22;;;;;;;15.70;7.22;;;20.40;99.90;;;;;;5090227;28;20416;-84
2022/10/13 07:06:49;;;;;;;10.77;2.60;;;20.30;99.90;;;;;;5091553;28;20370;-83
2022/10/13 07:09:17;;;;;;;10.48;1.92;;;20.20;99.90;;;;;;5090695;28;20366;-85
2022/10/13 07:11:44;;;;;;;8.93;1.95;;;20.10;99.90;;;;;;5089968;28;20420;-84
2022/10/13 07:14:12;;;;;;;7.30;1.83;;;19.80;99.90;;;;;;5077370;28;20494;-84
2022/10/13 07:16:40;;;;;;;8.93;1.80;;;20.10;99.90;;;;;;5075188;28;20880;-84
2022/10/13 07:19:07;;;;;;;7.80;1.90;;;20.10;99.90;;;;;;5074280;28;20370;-83
2022/10/13 07:21:34;;;;;;;9.65;1.70;;;20.10;99.90;;;;;;5073785;28;20531;-83
2022/10/13 07:24:02;;;;;;;7.90;1.60;;;19.90;99.90;;;;;;5073670;28;20374;-89
2022/10/13 07:26:32;;;;;;;6.95;1.70;;;19.90;99.90;;;;;;5080696;28;20905;-86
2022/10/13 07:29:00;;;;;;;7.60;1.63;;;19.80;99.90;;;;;;5073492;28;20422;-83
2022/10/13 07:31:28;;;;;;;6.28;1.58;;;19.70;99.90;;;;;;5073288;28;20409;-80
2022/10/13 07:33:56;;;;;;;8.90;1.80;;;19.70;99.90;;;;;;5073565;28;20370;-81
2022/10/13 07:39:45;;;;;;;7.30;1.60;;;19.60;99.90;;;;;;5073760;28;20412;-83
2022/10/13 07:42:12;;;;;;;7.38;1.92;;;19.50;99.90;;;;;;5074436;28;20420;-82
2022/10/13 07:44:39;;;;;;;8.50;2.03;;;19.50;99.90;;;;;;5073157;28;20370;-83
2022/10/13 07:47:06;;;;;;;7.00;1.60;;;19.40;99.90;;;;;;5073459;28;20371;-82
2022/10/13 07:49:33;;;;;;;8.47;1.83;;;19.40;99.90;;;;;;5073215;28;20461;-83
2022/10/13 07:52:01;;;;;;;9.15;1.75;;;19.30;99.90;;;;;;5073326;28;20402;-81
2022/10/13 07:54:28;;;;;;;9.77;1.83;;;19.30;99.90;;;;;;5072739;28;20423;-83
2022/10/13 07:56:56;;;;;;;8.80;1.92;;;19.20;99.90;;;;;;5072676;28;20385;-85
2022/10/13 07:59:23;;;;;;;7.88;1.70;;;19.20;99.90;;;;;;5073165;28;20449;-83
2022/10/13 08:01:50;;;;;;;8.38;1.92;;;19.10;99.90;;;;;;5072979;28;20374;-82
2022/10/13 08:04:17;;;;;;;6.95;1.73;;;19.10;99.90;;;;;;5072887;28;20401;-83
2022/10/13 08:06:44;;;;;;;10.88;1.92;;;19.00;99.90;;;;;;5073797;28;20788;-84
2022/10/13 08:09:11;;;;;;;8.85;2.13;;;19.00;99.90;;;;;;5075747;28;20858;-82
2022/10/13 08:11:39;;;;;;;8.98;1.90;;;18.90;99.90;;;;;;5078794;28;20401;-81
2022/10/13 08:14:06;;;;;;;10.07;2.00;;;18.80;99.90;;;;;;5081190;28;20870;-84
2022/10/13 08:16:33;;;;;;;8.85;1.90;;;18.80;99.90;;;;;;5061870;28;20379;-82
2022/10/13 08:19:00;;;;;;;8.45;1.80;;;18.80;99.90;;;;;;5077796;28;20850;-82
2022/10/13 08:21:28;;;;;;;9.98;2.00;;;18.70;99.90;;;;;;5076581;28;20507;-83
2022/10/13 08:23:56;;;;;;;11.73;2.28;;;18.70;99.90;;;;;;5077403;28;20374;-82
2022/10/13 08:26:26;;;;;;;13.40;2.60;;;18.70;99.90;;;;;;5077599;28;20858;-82
2022/10/13 08:28:53;;;;;;;13.07;2.30;;;18.60;99.90;;;;;;5075420;28;20727;-81
2022/10/13 08:31:20;;;;;;;10.10;2.20;;;18.60;99.90;;;;;;5073667;28;20394;-82
2022/10/13 08:33:47;;;;;;;8.98;2.20;;;18.60;99.90;;;;;;5073344;28;20378;-82
2022/10/13 08:36:16;;;;;;;9.52;2.25;;;18.60;99.90;;;;;;5055426;28;20388;-84
2022/10/13 08:38:44;;;;;;;10.90;2.13;;;18.50;99.90;;;;;;5055574;28;20456;-83
2022/10/13 08:41:24;;;;;;;8.52;1.95;;;18.50;99.90;;;;;;5072773;28;20374;-81
2022/10/13 08:43:56;;;;;;;13.48;2.05;;;18.50;99.90;;;;;;5072592;28;20370;-82
2022/10/13 08:46:28;;;;;;;11.80;2.35;;;18.50;99.90;;;;;;5072949;28;20365;-80
2022/10/13 08:48:56;;;;;;;10.57;2.40;;;18.50;99.90;;;;;;5072534;28;20378;-82
2022/10/13 08:51:23;;;;;;;10.30;2.42;;;18.40;99.90;;;;;;5072192;28;20493;-80
2022/10/13 08:53:51;;;;;;;13.48;2.53;;;18.40;99.90;;;;;;5072610;28;20858;-82
2022/10/13 08:56:28;;;;;;;9.48;2.40;;;18.30;99.90;;;;;;5072868;28;20366;-84
2022/10/13 08:58:56;;;;;;;9.15;2.20;;;18.30;99.90;;;;;;5076140;28;20374;-80
2022/10/13 09:01:29;;;;;;;9.93;2.22;;;18.20;99.90;;;;;;5075775;28;20370;-81
2022/10/13 09:04:19;;;;;;;11.48;2.10;;;18.30;99.90;;;;;;5040934;28;20410;-80
2022/10/13 09:06:55;;;;;;;11.68;2.13;;;18.30;99.90;;;;;;5075862;28;20862;-82
2022/10/13 09:09:22;;;;;;;12.23;2.22;;;18.30;99.90;;;;;;5075766;28;20381;-81
2022/10/13 09:11:50;;;;;;;10.75;2.40;;;18.30;99.90;;;;;;5076021;28;20488;-81
2022/10/13 09:14:32;;;;;;;9.20;2.35;;;18.30;99.90;;;;;;5075115;28;20888;-83
2022/10/13 09:17:16;;;;;;;12.07;2.40;;;18.30;99.90;;;;;;5075661;28;20373;-81
2022/10/13 09:19:45;;;;;;;9.88;2.33;;;18.30;99.90;;;;;;5075457;28;20397;-81
2022/10/13 09:22:33;;;;;;;9.90;2.35;;;18.30;99.90;;;;;;5075264;28;20388;-84
2022/10/13 09:25:20;;;;;;;9.55;2.30;;;18.30;99.90;;;;;;5075111;28;20366;-80
2022/10/13 09:28:08;;;;;;;10.73;2.28;;;18.30;99.90;;;;;;5075679;28;20363;-81
2022/10/13 09:30:40;;;;;;;13.15;2.17;;;18.30;99.90;;;;;;5075120;28;20394;-81
2022/10/13 09:33:12;;;;;;;12.48;2.50;;;18.30;99.90;;;;;;5074905;28;20394;-81
2022/10/13 09:35:41;;;;;;;11.35;2.20;;;18.30;99.90;;;;;;5075007;28;20374;-81
2022/10/13 09:38:20;;;;;;;9.05;2.20;;;18.20;99.90;;;;;;5075559;28;20424;-80
2022/10/13 09:41:06;;;;;;;9.93;2.38;;;18.30;99.90;;;;;;5074905;28;20367;-82
2022/10/13 09:43:41;;;;;;;11.82;2.50;;;18.20;99.90;;;;;;5057119;28;20882;-80
2022/10/13 09:46:32;;;;;;;10.13;2.40;;;18.20;99.90;;;;;;5075217;28;20370;-83
2022/10/13 09:49:20;;;;;;;11.05;2.60;;;18.20;99.90;;;;;;5075663;28;20379;-84
2022/10/13 09:51:47;;;;;;;13.82;2.50;;;18.20;99.90;;;;;;5075120;28;20413;-83
2022/10/13 09:54:32;;;;;;;12.90;2.70;;;18.10;99.90;;;;;;5075035;28;20559;-80
2022/10/13 09:57:05;;;;;;;10.82;2.45;;;18.10;99.90;;;;;;5074781;28;20362;-82
2022/10/13 09:59:36;;;;;;;14.63;2.70;;;18.10;99.90;;;;;;5074878;28;20833;-82
2022/10/13 10:02:20;;;;;;;9.65;2.58;;;18.10;99.90;;;;;;5075936;28;20411;-82
2022/10/13 10:04:48;;;;;;;11.95;2.40;;;18.10;99.90;;;;;;5077990;28;20374;-83
2022/10/13 10:07:22;;;;;;;13.38;2.80;;;18.00;99.90;;;;;;5077215;28;20385;-80
2022/10/13 10:09:56;;;;;;;15.27;2.95;;;18.00;99.90;;;;;;5074507;28;20389;-82
2022/10/13 10:12:29;;;;;;;11.10;2.58;;;18.00;99.90;;;;;;5074614;28;20913;-84
2022/10/13 10:14:56;;;;;;;11.40;3.00;;;18.00;99.90;;;;;;5074478;28;20382;-80
2022/10/13 10:17:42;;;;;;;11.05;2.80;;;18.00;99.90;;;;;;5074564;28;20381;-81
2022/10/13 10:20:33;;;;;;;11.85;2.80;;;18.00;99.90;;;;;;5074769;28;20369;-84
2022/10/13 10:23:14;;;;;;;14.70;3.05;;;18.00;99.90;;;;;;5074747;28;20408;-85
2022/10/13 10:25:49;;;;;;;10.65;2.65;;;17.90;99.90;;;;;;5074869;28;20761;-85
2022/10/13 10:28:35;;;;;;;10.40;2.50;;;18.00;99.90;;;;;;5074481;28;20362;-82
2022/10/13 10:31:20;;;;;;;10.80;2.55;;;18.00;99.90;;;;;;5074126;28;20870;-83
2022/10/13 10:33:52;;;;;;;14.02;2.78;;;18.00;99.90;;;;;;5075364;28;20464;-81
2022/10/13 10:36:25;;;;;;;13.05;2.70;;;17.30;99.90;;;;;;5074293;28;20370;-84
2022/10/13 10:39:15;;;;;;;13.10;2.80;;;18.00;99.90;;;;;;5074613;28;20378;-82
2022/10/13 10:42:18;;;;;;;13.85;2.83;;;17.90;99.90;;;;;;5073271;28;20941;-82
2022/10/13 10:44:48;;;;;;;12.52;2.80;;;17.90;99.90;;;;;;5069849;28;20443;-82
2022/10/13 10:47:41;;;;;;;11.93;2.88;;;17.90;99.90;;;;;;5074222;28;20746;-81
2022/10/13 10:50:15;;;;;;;13.68;3.00;;;17.90;99.90;;;;;;5074119;28;20935;-81
2022/10/13 10:52:50;;;;;;;14.88;3.28;;;17.90;99.90;;;;;;5073902;28;20421;-80
2022/10/13 10:55:37;;;;;;;14.15;3.13;;;17.80;99.90;;;;;;5074202;28;20877;-81
2022/10/13 10:58:13;;;;;;;11.80;3.15;;;17.80;99.90;;;;;;5073481;28;20495;-81
2022/10/13 11:01:13;;;;;;;14.82;3.50;;;17.80;99.90;;;;;;5074041;28;20370;-81
2022/10/13 11:03:43;;;;;;;12.98;3.10;;;17.70;99.90;;;;;;4992423;28;20444;-84
2022/10/13 11:06:15;;;;;;;11.77;3.03;;;17.70;99.90;;;;;;4992294;28;20749;-83
2022/10/13 11:08:45;;;;;;;12.57;3.10;;;17.60;99.90;;;;;;4992579;28;20840;-82
2022/10/13 11:11:25;;;;;;;11.38;3.00;;;17.60;99.90;;;;;;4991848;28;20503;-81
2022/10/13 11:14:08;;;;;;;10.27;3.00;;;17.50;99.90;;;;;;4964731;28;20406;-82
2022/10/13 11:16:38;;;;;;;11.98;3.00;;;17.50;99.90;;;;;;4972592;28;20390;-81
2022/10/13 11:19:28;;;;;;;11.10;3.20;;;17.50;99.90;;;;;;4955944;28;20918;-83
2022/10/13 11:21:58;;;;;;;12.73;3.20;;;17.40;99.90;;;;;;4972857;28;20456;-83
2022/10/13 11:24:40;;;;;;;11.60;3.25;;;17.40;99.90;;;;;;4972107;28;20382;-82
2022/10/13 11:27:16;;;;;;;12.50;3.13;;;17.30;99.90;;;;;;4972649;28;20379;-82
2022/10/13 11:29:46;;;;;;;15.85;3.28;;;17.30;99.90;;;;;;4972204;28;20396;-80
2022/10/13 11:32:54;;;;;;;12.00;2.97;;;17.20;99.90;;;;;;4971997;28;20822;-81
2022/10/13 11:35:25;;;;;;;11.40;3.38;;;17.20;99.90;;;;;;4971407;28;20862;-81
2022/10/13 11:37:59;;;;;;;14.90;3.30;;;17.10;99.90;;;;;;4973408;28;20438;-82
2022/10/13 11:40:35;;;;;;;16.27;3.70;;;17.10;99.90;;;;;;5012515;28;20789;-82
2022/10/13 11:43:14;;;;;;;16.40;4.35;;;17.00;99.90;;;;;;5056837;28;20375;-82
2022/10/13 11:46:15;;;;;;;16.50;4.90;;;16.90;99.90;;;;;;5058141;28;20415;-82
2022/10/13 11:49:01;;;;;;;14.32;5.00;;;16.80;99.90;;;;;;5054388;28;20821;-80
2022/10/13 11:52:04;;;;;;;16.42;5.00;;;16.80;99.90;;;;;;5053366;28;20388;-80
2022/10/13 11:54:49;;;;;;;13.88;4.78;;;16.70;99.90;;;;;;5053390;28;20375;-82
2022/10/13 12:00:48;;;;;;;12.77;3.80;;;16.60;99.90;;;;;;5053338;28;20386;-82
2022/10/13 12:03:26;;;;;;;14.05;3.85;;;16.50;99.90;;;;;;5034854;28;20418;-80
2022/10/13 12:05:54;;;;;;;13.45;4.10;;;16.50;99.90;;;;;;5052828;28;20366;-81
2022/10/13 12:08:23;;;;;;;16.52;4.40;;;16.40;99.90;;;;;;5035058;28;20459;-81
2022/10/13 12:10:57;;;;;;;14.43;4.43;;;16.40;99.90;;;;;;5034817;28;20383;-81
2022/10/13 12:13:29;;;;;;;15.73;4.57;;;16.40;99.90;;;;;;5059920;28;20947;-80
2022/10/13 12:16:04;;;;;;;13.73;4.63;;;16.30;99.90;;;;;;5072655;28;20370;-82
2022/10/13 12:18:33;;;;;;;14.75;4.63;;;16.30;99.90;;;;;;5072671;28;20470;-82
2022/10/13 12:21:24;;;;;;;16.52;4.32;;;16.30;99.90;;;;;;5073255;28;20394;-82
2022/10/13 12:24:04;;;;;;;16.53;4.13;;;16.30;99.90;;;;;;5073516;28;20393;-82
2022/10/13 12:26:31;;;;;;;14.07;4.00;;;16.30;99.90;;;;;;5074792;28;20356;-83
2022/10/13 12:29:02;;;;;;;13.77;4.07;;;16.20;99.90;;;;;;5075409;28;20378;-82
2022/10/13 12:31:41;;;;;;;12.40;3.93;;;16.20;99.90;;;;;;5072275;28;20393;-82
2022/10/13 12:34:32;;;;;;;12.25;3.63;;;16.20;99.90;;;;;;5076644;28;20370;-81
2022/10/13 12:37:00;;;;;;;11.77;3.40;;;16.10;99.90;;;;;;5077747;28;20457;-83
2022/10/13 12:39:30;;;;;;;12.05;3.47;;;16.10;99.90;;;;;;5076531;28;20376;-82
2022/10/13 12:41:59;;;;;;;11.50;3.45;;;16.10;99.90;;;;;;5076845;28;20374;-82
2022/10/13 12:44:31;;;;;;;12.35;3.45;;;16.00;99.90;;;;;;5079195;28;20382;-81
2022/10/13 12:47:00;;;;;;;12.97;3.47;;;16.00;99.90;;;;;;5079040;28;20400;-83
2022/10/13 12:49:30;;;;;;;13.25;3.75;;;16.00;99.90;;;;;;5076868;28;20378;-83
2022/10/13 12:52:21;;;;;;;13.57;3.50;;;15.90;99.90;;;;;;5059257;28;20402;-80
2022/10/13 12:54:50;;;;;;;14.03;3.47;;;15.90;99.90;;;;;;5079208;28;20436;-82
2022/10/13 12:57:34;;;;;;;14.73;3.45;;;15.90;99.90;;;;;;5077879;28;20861;-79
2022/10/13 13:00:01;;;;;;;11.43;3.35;;;15.90;99.90;;;;;;5080473;28;20864;-82
2022/10/13 13:02:31;;;;;;;15.20;3.40;;;15.90;99.90;;;;;;5079286;28;20382;-80
2022/10/13 13:04:58;;;;;;;10.87;3.40;;;15.90;99.90;;;;;;5078185;28;20374;-82
2022/10/13 13:07:28;;;;;;;15.27;3.40;;;15.80;99.90;;;;;;5077693;28;20408;-80
2022/10/13 13:09:59;;;;;;;11.07;3.22;;;15.80;99.90;;;;;;5077494;28;20373;-81
2022/10/13 13:12:28;;;;;;;12.85;3.30;;;15.80;99.90;;;;;;5077463;28;20402;-80
2022/10/13 13:14:56;;;;;;;10.73;3.07;;;15.80;99.90;;;;;;5076497;28;20601;-80